| time (UTC) | temp F | wind direction | speed knots | gust knots | rain 1hr in | rain 24hr in | rain mn in | humidity % | barometer mb |
| 20260507180005 | 72 | 134 | 1.7 | 5.2 | 0.00 | 0.00 | 0.00 | 37 | 1017.3 |
| 20260507174509 | 70 | 103 | 0.9 | 6.1 | 0.00 | 0.00 | 0.00 | 38 | 1017.6 |
| 20260507173120 | 71 | 125 | 0.0 | 3.5 | 0.00 | 0.00 | 0.00 | 38 | 1017.8 |
| 20260507171558 | 70 | 146 | 0.0 | 2.6 | 0.00 | 0.00 | 0.00 | 38 | 1018.1 |
| 20260507170057 | 70 | 134 | 0.0 | 3.5 | 0.00 | 0.00 | 0.00 | 38 | 1018.3 |
| 20260507164627 | 70 | 136 | 0.0 | 2.6 | 0.00 | 0.00 | 0.00 | 39 | 1018.6 |
| 20260507163054 | 68 | 101 | 0.0 | 3.5 | 0.00 | 0.00 | 0.00 | 39 | 1018.7 |
| 20260507161556 | 69 | 123 | 0.0 | 1.7 | 0.00 | 0.00 | 0.00 | 40 | 1018.9 |
| 20260507160049 | 69 | 147 | 0.0 | 2.6 | 0.00 | 0.00 | 0.00 | 39 | 1019.0 |
| 20260507154548 | 68 | 176 | 0.0 | 1.7 | 0.00 | 0.00 | 0.00 | 42 | 1019.1 |
| 20260507153044 | 66 | 149 | 0.0 | 3.5 | 0.00 | 0.00 | 0.00 | 43 | 1019.3 |
| 20260507151540 | 65 | 96 | 0.0 | 1.7 | 0.00 | 0.00 | 0.00 | 44 | 1019.6 |
| 20260507150038 | 64 | 134 | 0.0 | 3.5 | 0.00 | 0.00 | 0.00 | 43 | 1019.8 |
| 20260507144537 | 62 | 100 | 0.0 | 0.9 | 0.00 | 0.00 | 0.00 | 55 | 1020.0 |
| 20260507143029 | 59 | 134 | 0.0 | 0.0 | 0.00 | 0.00 | 0.00 | 60 | 1020.0 |
| 20260507141523 | 55 | 136 | 0.0 | 0.0 | 0.00 | 0.00 | 0.00 | 69 | 1019.9 |
| 20260507140021 | 53 | 139 | 0.0 | 0.0 | 0.00 | 0.00 | 0.00 | 79 | 1019.9 |
| 20260507134516 | 50 | 150 | 0.0 | 0.0 | 0.00 | 0.00 | 0.00 | 85 | 1019.9 |
| 20260507133015 | 48 | 150 | 0.0 | 0.0 | 0.00 | 0.00 | 0.00 | 90 | 1019.8 |
| 20260507131518 | 47 | 151 | 0.0 | 0.0 | 0.00 | 0.00 | 0.00 | 92 | 1019.8 |
| 20260507130012 | 45 | 150 | 0.0 | 0.0 | 0.00 | 0.00 | 0.00 | 93 | 1019.7 |
| 20260507124513 | 44 | 151 | 0.0 | 0.0 | 0.00 | 0.00 | 0.00 | 93 | 1019.6 |
| 20260507123009 | 43 | 150 | 0.0 | 0.0 | 0.00 | 0.00 | 0.00 | 93 | 1019.6 |
| 20260507121511 | 42 | 150 | 0.0 | 0.0 | 0.00 | 0.00 | 0.00 | 93 | 1019.4 |
| 20260507120008 | 42 | 150 | 0.0 | 0.0 | 0.00 | 0.00 | 0.00 | 92 | 1019.1 |
| 20260507114506 | 42 | 150 | 0.0 | 0.0 | 0.00 | 0.00 | 0.00 | 92 | 1019.1 |
| 20260507113014 | 42 | 150 | 0.0 | 0.0 | 0.00 | 0.00 | 0.00 | 91 | 1019.0 |
| 20260507111504 | 42 | 150 | 0.0 | 0.0 | 0.00 | 0.00 | 0.00 | 91 | 1018.9 |
| 20260507110001 | 42 | 150 | 0.0 | 0.0 | 0.00 | 0.00 | 0.00 | 91 | 1018.8 |
| 20260507104502 | 42 | 150 | 0.0 | 0.0 | 0.00 | 0.00 | 0.00 | 91 | 1018.9 |
| 20260507103059 | 42 | 150 | 0.0 | 0.0 | 0.00 | 0.00 | 0.00 | 90 | 1018.8 |
| 20260507101559 | 43 | 150 | 0.0 | 0.0 | 0.00 | 0.00 | 0.00 | 91 | 1018.9 |
| 20260507100111 | 43 | 150 | 0.0 | 0.0 | 0.00 | 0.00 | 0.00 | 90 | 1019.0 |
| 20260507094604 | 43 | 150 | 0.0 | 0.0 | 0.00 | 0.00 | 0.00 | 90 | 1018.6 |
| 20260507093056 | 43 | 150 | 0.0 | 0.0 | 0.00 | 0.00 | 0.00 | 90 | 1018.4 |
| 20260507091620 | 43 | 150 | 0.0 | 0.0 | 0.00 | 0.00 | 0.00 | 89 | 1018.5 |
| 20260507090053 | 43 | 150 | 0.0 | 0.0 | 0.00 | 0.00 | 0.00 | 89 | 1018.9 |
| 20260507084603 | 43 | 150 | 0.0 | 0.0 | 0.00 | 0.00 | 0.00 | 88 | 1018.8 |
| 20260507083050 | 44 | 150 | 0.0 | 0.0 | 0.00 | 0.00 | 0.00 | 87 | 1018.9 |
| 20260507081556 | 44 | 150 | 0.0 | 0.0 | 0.00 | 0.00 | 0.00 | 87 | 1018.8 |
| 20260507080046 | 44 | 150 | 0.0 | 0.0 | 0.00 | 0.00 | 0.00 | 86 | 1018.6 |
| 20260507074549 | 45 | 150 | 0.0 | 0.0 | 0.00 | 0.00 | 0.00 | 85 | 1018.5 |
| 20260507073043 | 45 | 150 | 0.0 | 0.0 | 0.00 | 0.00 | 0.00 | 84 | 1018.9 |
| 20260507071539 | 46 | 150 | 0.0 | 0.0 | 0.00 | 0.00 | 0.00 | 83 | 1018.7 |
| 20260507070039 | 46 | 150 | 0.0 | 0.0 | 0.00 | 0.00 | 0.00 | 82 | 1019.0 |
| 20260507064538 | 47 | 150 | 0.0 | 0.0 | 0.00 | 0.00 | 0.00 | 80 | 1019.2 |
| 20260507063038 | 47 | 150 | 0.0 | 0.0 | 0.00 | 0.00 | 0.00 | 79 | 1019.2 |
| 20260507061530 | 48 | 150 | 0.0 | 0.0 | 0.00 | 0.00 | 0.00 | 76 | 1019.1 |
| 20260507060028 | 49 | 150 | 0.0 | 0.0 | 0.00 | 0.00 | 0.00 | 75 | 1018.9 |
| 20260507054526 | 49 | 150 | 0.0 | 0.0 | 0.00 | 0.00 | 0.00 | 76 | 1018.6 |
| 20260507053025 | 49 | 150 | 0.0 | 0.0 | 0.00 | 0.00 | 0.00 | 75 | 1018.8 |
| 20260507051521 | 49 | 150 | 0.0 | 0.0 | 0.00 | 0.00 | 0.00 | 72 | 1018.6 |
| 20260507050025 | 50 | 150 | 0.0 | 0.0 | 0.00 | 0.00 | 0.00 | 69 | 1018.6 |
| 20260507044517 | 51 | 150 | 0.0 | 0.0 | 0.00 | 0.00 | 0.00 | 67 | 1018.5 |
| 20260507043024 | 52 | 150 | 0.0 | 0.0 | 0.00 | 0.00 | 0.00 | 67 | 1018.5 |
| 20260507041516 | 53 | 150 | 0.0 | 0.0 | 0.00 | 0.00 | 0.00 | 65 | 1018.5 |
| 20260507040016 | 54 | 150 | 0.0 | 0.0 | 0.00 | 0.00 | 0.00 | 63 | 1018.4 |
| 20260507034522 | 55 | 150 | 0.0 | 0.0 | 0.00 | 0.00 | 0.00 | 60 | 1018.5 |
| 20260507033016 | 55 | 150 | 0.0 | 0.0 | 0.00 | 0.00 | 0.00 | 58 | 1018.3 |
| 20260507031517 | 56 | 150 | 0.0 | 0.0 | 0.00 | 0.00 | 0.00 | 55 | 1018.1 |
| 20260507030015 | 57 | 171 | 0.0 | 0.0 | 0.00 | 0.00 | 0.00 | 54 | 1018.0 |
| 20260507024518 | 57 | 165 | 0.0 | 0.0 | 0.00 | 0.00 | 0.00 | 53 | 1017.8 |
| 20260507023013 | 58 | 158 | 0.0 | 0.9 | 0.00 | 0.00 | 0.00 | 52 | 1017.7 |
| 20260507021512 | 58 | 165 | 0.0 | 1.7 | 0.00 | 0.00 | 0.00 | 51 | 1017.5 |
| 20260507020018 | 59 | 148 | 0.0 | 4.3 | 0.00 | 0.00 | 0.00 | 51 | 1017.4 |
| 20260507014511 | 59 | 150 | 0.0 | 0.0 | 0.00 | 0.00 | 0.00 | 51 | 1017.1 |
| 20260507013013 | 60 | 150 | 0.0 | 0.0 | 0.00 | 0.00 | 0.00 | 50 | 1016.9 |
| 20260507011512 | 61 | 148 | 0.0 | 2.6 | 0.00 | 0.00 | 0.00 | 48 | 1016.7 |
| 20260507010011 | 62 | 171 | 0.0 | 2.6 | 0.00 | 0.00 | 0.00 | 46 | 1016.5 |
| 20260507004510 | 62 | 172 | 0.0 | 3.5 | 0.00 | 0.00 | 0.00 | 46 | 1016.4 |
| 20260507003008 | 63 | 170 | 0.9 | 3.5 | 0.00 | 0.00 | 0.00 | 46 | 1016.3 |
| 20260507001523 | 63 | 169 | 0.0 | 3.5 | 0.00 | 0.00 | 0.00 | 47 | 1016.2 |
| 20260507000013 | 63 | 170 | 0.0 | 3.5 | 0.00 | 0.00 | 0.00 | 46 | 1016.1 |
| 20260506234505 | 63 | 168 | 0.0 | 5.2 | 0.00 | 0.00 | 0.00 | 46 | 1016.1 |
| 20260506233005 | 63 | 172 | 0.0 | 2.6 | 0.00 | 0.00 | 0.00 | 46 | 1016.0 |
| 20260506231504 | 64 | 172 | 0.9 | 6.1 | 0.00 | 0.00 | 0.00 | 45 | 1016.0 |
| 20260506230003 | 65 | 171 | 0.0 | 5.2 | 0.00 | 0.00 | 0.00 | 45 | 1015.8 |
| 20260506224501 | 65 | 153 | 0.0 | 5.2 | 0.00 | 0.00 | 0.00 | 45 | 1015.7 |
| 20260506223001 | 64 | 172 | 0.0 | 6.1 | 0.00 | 0.00 | 0.00 | 45 | 1015.5 |
| 20260506221617 | 65 | 159 | 0.0 | 6.1 | 0.00 | 0.00 | 0.00 | 45 | 1015.4 |
| 20260506220100 | 65 | 169 | 0.9 | 6.1 | 0.00 | 0.00 | 0.00 | 43 | 1015.3 |
| 20260506214557 | 65 | 172 | 0.9 | 7.8 | 0.00 | 0.00 | 0.00 | 46 | 1015.2 |
| 20260506213102 | 64 | 175 | 1.7 | 5.2 | 0.00 | 0.00 | 0.00 | 45 | 1015.4 |
| 20260506211555 | 64 | 165 | 0.9 | 6.1 | 0.00 | 0.00 | 0.00 | 45 | 1015.4 |
| 20260506210057 | 64 | 172 | 0.0 | 5.2 | 0.00 | 0.00 | 0.00 | 45 | 1015.4 |
| 20260506204556 | 63 | 178 | 0.9 | 3.5 | 0.00 | 0.00 | 0.00 | 49 | 1015.7 |
| 20260506203108 | 63 | 174 | 0.9 | 5.2 | 0.00 | 0.00 | 0.00 | 48 | 1015.9 |
| 20260506201550 | 64 | 94 | 0.0 | 5.2 | 0.00 | 0.00 | 0.00 | 47 | 1016.1 |
| 20260506200055 | 64 | 152 | 0.9 | 4.3 | 0.00 | 0.00 | 0.00 | 49 | 1016.4 |
| 20260506194550 | 64 | 170 | 0.9 | 5.2 | 0.00 | 0.00 | 0.00 | 48 | 1016.3 |
| 20260506193051 | 64 | 154 | 0.9 | 6.1 | 0.00 | 0.00 | 0.00 | 49 | 1016.2 |
| 20260506191548 | 63 | 172 | 0.0 | 4.3 | 0.00 | 0.00 | 0.00 | 49 | 1016.5 |
| 20260506190050 | 64 | 165 | 0.9 | 6.1 | 0.00 | 0.00 | 0.00 | 49 | 1016.8 |
| 20260506184549 | 64 | 172 | 0.0 | 6.1 | 0.00 | 0.00 | 0.00 | 48 | 1017.0 |
| 20260506183046 | 64 | 148 | 0.0 | 6.1 | 0.00 | 0.00 | 0.00 | 48 | 1017.1 |
| 20260506181549 | 63 | 166 | 0.9 | 6.1 | 0.00 | 0.00 | 0.00 | 50 | 1017.3 |